createdAt,value
2023-05-24T00:00:07.890Z,4.95
2023-05-24T00:02:34.523Z,4.99
2023-05-24T00:05:01.552Z,4.93
2023-05-24T00:07:28.437Z,4.91
2023-05-24T00:09:55.019Z,4.89
2023-05-24T00:12:21.585Z,4.79
2023-05-24T00:14:49.479Z,4.73
2023-05-24T00:17:16.112Z,4.70
2023-05-24T00:19:42.705Z,4.74
2023-05-24T00:22:09.246Z,4.75
2023-05-24T00:24:35.790Z,4.76
2023-05-24T00:27:02.378Z,4.71
2023-05-24T00:29:31.429Z,4.65
2023-05-24T00:32:00.228Z,4.62
2023-05-24T00:34:26.877Z,4.64
2023-05-24T00:36:53.437Z,4.63
2023-05-24T00:39:20.042Z,4.59
2023-05-24T00:41:46.556Z,4.55
2023-05-24T00:44:13.081Z,4.48
2023-05-24T00:46:39.984Z,4.38
2023-05-24T00:49:09.179Z,4.30
2023-05-24T00:51:36.424Z,4.21
2023-05-24T00:54:03.269Z,4.13
2023-05-24T00:56:30.891Z,4.05
2023-05-24T00:58:58.001Z,4.01
2023-05-24T01:01:24.701Z,3.95
2023-05-24T01:03:51.929Z,3.92
2023-05-24T01:06:20.256Z,3.92
2023-05-24T01:09:06.264Z,3.88
2023-05-24T01:11:45.826Z,3.83
2023-05-24T01:14:22.694Z,3.74
2023-05-24T01:16:52.765Z,3.70
2023-05-24T01:19:47.792Z,3.68
2023-05-24T01:22:46.853Z,3.64
2023-05-24T01:25:27.830Z,3.71
2023-05-24T01:27:56.147Z,3.65
2023-05-24T01:30:23.607Z,3.55
2023-05-24T01:32:50.355Z,3.49
2023-05-24T01:35:16.964Z,3.45
2023-05-24T01:37:43.631Z,3.40
2023-05-24T01:40:11.424Z,3.33
2023-05-24T01:42:45.726Z,3.25
2023-05-24T01:45:19.801Z,3.22
2023-05-24T01:48:05.283Z,3.18
2023-05-24T01:50:34.488Z,3.11
2023-05-24T01:53:06.631Z,3.06
2023-05-24T01:55:34.639Z,3.04
2023-05-24T01:58:04.477Z,2.99
2023-05-24T02:00:33.656Z,2.94
2023-05-24T02:03:01.323Z,2.85
2023-05-24T02:05:28.074Z,2.80
2023-05-24T02:07:54.690Z,2.76
2023-05-24T02:10:21.256Z,2.72
2023-05-24T02:12:47.822Z,2.68
2023-05-24T02:15:14.459Z,2.62
2023-05-24T02:17:42.589Z,2.57
2023-05-24T02:20:10.029Z,2.55
2023-05-24T02:22:36.792Z,2.54
2023-05-24T02:25:03.689Z,2.48
2023-05-24T02:27:30.849Z,2.48
2023-05-24T02:29:57.389Z,2.54
2023-05-24T02:32:23.999Z,2.57
2023-05-24T02:34:51.943Z,2.63
2023-05-24T02:37:18.693Z,2.71
2023-05-24T02:39:45.318Z,2.76
2023-05-24T02:42:11.884Z,2.75
2023-05-24T02:44:38.453Z,2.78
2023-05-24T02:47:05.686Z,2.79
2023-05-24T02:49:32.419Z,2.77
2023-05-24T02:52:00.354Z,2.74
2023-05-24T02:54:26.923Z,2.72
2023-05-24T02:56:53.574Z,2.63
2023-05-24T02:59:20.143Z,2.62
2023-05-24T03:01:46.737Z,2.71
2023-05-24T03:04:13.359Z,2.76
2023-05-24T03:06:39.934Z,2.85
2023-05-24T03:09:07.824Z,2.88
2023-05-24T03:11:34.404Z,2.86
2023-05-24T03:14:01.082Z,2.82
2023-05-24T03:16:27.649Z,2.77
2023-05-24T03:18:54.266Z,2.71
2023-05-24T03:21:21.395Z,2.75
2023-05-24T03:23:48.142Z,2.79
2023-05-24T03:26:16.433Z,2.79
2023-05-24T03:28:42.972Z,2.72
2023-05-24T03:31:09.765Z,2.68
2023-05-24T03:33:36.500Z,2.66
2023-05-24T03:36:04.489Z,2.58
2023-05-24T03:38:31.078Z,2.56
2023-05-24T03:40:57.656Z,2.55
2023-05-24T03:43:25.558Z,2.57
2023-05-24T03:45:52.227Z,2.63
2023-05-24T03:48:18.843Z,2.70
2023-05-24T03:50:45.699Z,2.79
2023-05-24T03:53:12.379Z,2.83
2023-05-24T03:55:38.958Z,2.88
2023-05-24T03:58:05.510Z,2.93
2023-05-24T04:00:33.377Z,2.97
2023-05-24T04:03:00.026Z,3.04
2023-05-24T04:05:26.716Z,3.05
2023-05-24T04:07:53.343Z,3.03
2023-05-24T04:10:20.102Z,3.03
2023-05-24T04:12:46.648Z,3.10
2023-05-24T04:15:13.186Z,3.18
2023-05-24T04:17:41.212Z,3.26
2023-05-24T04:20:08.510Z,3.31
2023-05-24T04:22:35.065Z,3.36
2023-05-24T04:25:01.717Z,3.47
2023-05-24T04:27:28.307Z,3.63
2023-05-24T04:29:54.820Z,3.70
2023-05-24T04:32:21.503Z,3.78
2023-05-24T04:34:49.830Z,3.88
2023-05-24T04:37:16.637Z,3.97
2023-05-24T04:39:43.870Z,3.96
2023-05-24T04:42:11.052Z,3.96
2023-05-24T04:44:38.095Z,3.98
2023-05-24T04:47:05.164Z,4.04
2023-05-24T04:49:32.124Z,4.09
2023-05-24T04:52:00.189Z,4.19
2023-05-24T04:54:26.897Z,4.30
2023-05-24T04:56:53.517Z,4.40
2023-05-24T04:59:20.226Z,4.51
2023-05-24T05:01:47.013Z,4.63
2023-05-24T05:04:13.657Z,4.76
2023-05-24T05:06:40.258Z,4.90
2023-05-24T05:09:08.906Z,4.98
2023-05-24T05:11:35.546Z,5.03
2023-05-24T05:14:02.171Z,5.07
2023-05-24T05:16:28.882Z,5.12
2023-05-24T05:18:55.464Z,5.18
2023-05-24T05:21:22.062Z,5.29
2023-05-24T05:23:48.850Z,5.36
2023-05-24T05:26:16.848Z,5.49
2023-05-24T05:28:43.578Z,5.55
2023-05-24T05:31:10.324Z,5.64
2023-05-24T05:33:36.882Z,5.60
2023-05-24T05:36:03.636Z,5.66
2023-05-24T05:38:30.184Z,5.71
2023-05-24T05:40:56.754Z,5.69
2023-05-24T05:43:24.670Z,5.74
2023-05-24T05:45:51.412Z,5.68
2023-05-24T05:48:18.104Z,5.58
2023-05-24T05:50:44.792Z,5.51
2023-05-24T05:53:11.456Z,5.63
2023-05-24T05:55:38.191Z,5.67
2023-05-24T05:58:04.933Z,5.68
2023-05-24T06:00:32.893Z,5.58
2023-05-24T06:02:59.798Z,5.60
2023-05-24T06:05:26.607Z,5.72
2023-05-24T06:07:53.107Z,5.82
2023-05-24T06:10:19.650Z,5.84
2023-05-24T06:12:46.212Z,5.79
2023-05-24T06:15:12.804Z,5.89
2023-05-24T06:17:40.871Z,5.91
2023-05-24T06:20:08.234Z,6.07
2023-05-24T06:22:34.893Z,6.05
2023-05-24T06:25:01.425Z,6.16
2023-05-24T06:27:28.114Z,6.20
2023-05-24T06:29:54.744Z,6.17
2023-05-24T06:32:21.395Z,6.28
2023-05-24T06:34:49.324Z,6.28
2023-05-24T06:37:16.018Z,6.39
2023-05-24T06:39:42.601Z,6.40
2023-05-24T06:42:09.195Z,6.45
2023-05-24T06:44:35.867Z,6.37
2023-05-24T06:47:02.653Z,6.48
2023-05-24T06:49:29.365Z,6.59
2023-05-24T06:51:57.346Z,6.57
2023-05-24T06:54:23.930Z,6.66
2023-05-24T06:56:50.680Z,6.63
2023-05-24T06:59:17.245Z,6.66
2023-05-24T07:01:44.078Z,6.75
2023-05-24T07:04:13.297Z,6.86
2023-05-24T07:06:39.892Z,6.95
2023-05-24T07:09:08.056Z,7.18
2023-05-24T07:11:34.659Z,7.33
2023-05-24T07:14:01.255Z,7.60
2023-05-24T07:16:28.094Z,7.62
2023-05-24T07:18:55.208Z,7.65
2023-05-24T07:21:21.878Z,7.71
2023-05-24T07:23:49.412Z,8.02
2023-05-24T07:26:17.339Z,8.37
2023-05-24T07:28:43.947Z,8.55
2023-05-24T07:31:10.558Z,8.60
2023-05-24T07:33:37.741Z,8.55
2023-05-24T07:36:05.039Z,8.82
2023-05-24T07:38:31.730Z,8.72
2023-05-24T07:40:59.869Z,8.83
2023-05-24T07:43:27.770Z,8.74
2023-05-24T07:45:54.383Z,8.89
2023-05-24T07:48:21.028Z,8.50
2023-05-24T07:50:48.969Z,8.27
2023-05-24T07:53:15.650Z,8.43
2023-05-24T07:55:42.418Z,8.46
2023-05-24T07:58:09.130Z,8.49
2023-05-24T08:00:37.053Z,8.54
2023-05-24T08:03:03.793Z,8.78
2023-05-24T08:05:30.391Z,8.90
2023-05-24T08:07:57.038Z,9.09
2023-05-24T08:10:23.908Z,9.44
2023-05-24T08:12:51.012Z,9.71
2023-05-24T08:15:17.681Z,9.88
2023-05-24T08:17:45.673Z,9.89
2023-05-24T08:20:12.355Z,9.99
2023-05-24T08:22:38.931Z,10.31
2023-05-24T08:25:06.451Z,10.40
2023-05-24T08:27:33.038Z,10.40
2023-05-24T08:30:02.746Z,10.69
2023-05-24T08:32:32.596Z,10.81
2023-05-24T08:35:14.857Z,10.94
2023-05-24T08:37:46.555Z,11.22
2023-05-24T08:40:13.338Z,11.36
2023-05-24T08:42:41.151Z,11.53
2023-05-24T08:45:11.580Z,11.57
2023-05-24T08:47:38.682Z,11.68
2023-05-24T08:50:08.116Z,11.63
2023-05-24T08:52:35.830Z,11.73
2023-05-24T08:55:04.547Z,11.64
2023-05-24T08:57:31.501Z,11.55
2023-05-24T08:59:58.250Z,11.42
2023-05-24T09:02:24.929Z,11.49
2023-05-24T09:04:53.384Z,11.54
2023-05-24T09:07:23.894Z,11.73
2023-05-24T09:09:57.588Z,11.56
2023-05-24T09:12:36.114Z,11.43
2023-05-24T09:15:05.560Z,12.33
2023-05-24T09:17:33.795Z,12.84
2023-05-24T09:20:01.132Z,13.80
2023-05-24T09:22:29.340Z,14.91
2023-05-24T09:24:58.620Z,15.78
2023-05-24T09:27:25.269Z,13.98
2023-05-24T09:29:52.199Z,13.66
2023-05-24T09:32:20.366Z,13.51
2023-05-24T09:34:47.544Z,13.55
2023-05-24T09:37:15.721Z,13.38
2023-05-24T09:39:44.587Z,14.04
2023-05-24T09:42:15.289Z,14.02
2023-05-24T09:44:41.877Z,14.08
2023-05-24T09:47:08.457Z,13.85
2023-05-24T09:49:37.202Z,13.73
2023-05-24T09:52:04.512Z,13.69
2023-05-24T09:54:31.916Z,14.06
2023-05-24T09:57:03.477Z,14.30
2023-05-24T09:59:32.980Z,15.13
2023-05-24T10:02:08.089Z,15.92
2023-05-24T10:04:34.714Z,15.88
2023-05-24T10:07:01.935Z,15.84
2023-05-24T10:09:29.401Z,16.15
2023-05-24T10:11:56.078Z,16.42
2023-05-24T10:14:25.195Z,15.45
2023-05-24T10:16:51.896Z,14.98
2023-05-24T10:19:18.674Z,13.69
2023-05-24T10:21:45.862Z,13.34
2023-05-24T10:24:14.661Z,14.16
2023-05-24T10:26:41.853Z,14.27
2023-05-24T10:29:17.229Z,14.28
2023-05-24T10:31:45.785Z,14.06
2023-05-24T10:34:13.082Z,13.57
2023-05-24T10:36:40.181Z,13.51
2023-05-24T10:39:09.323Z,13.09
2023-05-24T10:41:39.208Z,13.97
2023-05-24T10:44:11.028Z,15.37
2023-05-24T10:47:06.998Z,15.89
2023-05-24T10:49:33.655Z,16.50
2023-05-24T10:52:07.341Z,15.82
2023-05-24T10:54:34.065Z,15.79
2023-05-24T10:57:01.798Z,15.49
2023-05-24T10:59:31.661Z,14.75
2023-05-24T11:01:59.583Z,15.52
2023-05-24T11:04:31.395Z,16.92
2023-05-24T11:07:01.604Z,17.95
2023-05-24T11:09:28.230Z,17.99
2023-05-24T11:11:56.361Z,17.80
2023-05-24T11:14:25.015Z,16.86
2023-05-24T11:16:51.989Z,16.67
2023-05-24T11:19:20.248Z,16.24
2023-05-24T11:21:49.283Z,16.25
2023-05-24T11:24:17.621Z,16.12
2023-05-24T11:26:44.404Z,16.48
2023-05-24T11:29:13.153Z,17.13
2023-05-24T11:31:46.697Z,16.86
2023-05-24T11:34:13.488Z,16.81
2023-05-24T11:36:40.785Z,16.28
2023-05-24T11:39:08.967Z,15.63
2023-05-24T11:41:37.477Z,15.61
2023-05-24T11:44:04.213Z,15.36
2023-05-24T11:46:31.583Z,16.51
2023-05-24T11:48:58.563Z,17.26
2023-05-24T11:51:29.473Z,17.42
2023-05-24T11:53:56.869Z,17.59
2023-05-24T11:56:24.937Z,18.16
2023-05-24T11:59:03.253Z,19.20
2023-05-24T12:01:29.786Z,19.54
2023-05-24T12:03:56.473Z,20.22
2023-05-24T12:06:23.312Z,18.86
2023-05-24T12:08:49.983Z,18.05
2023-05-24T12:11:16.930Z,17.83
2023-05-24T12:13:44.934Z,18.60
2023-05-24T12:16:12.107Z,18.16
2023-05-24T12:18:41.628Z,17.96
2023-05-24T12:21:12.511Z,17.91
2023-05-24T12:23:39.717Z,18.42
2023-05-24T12:26:06.448Z,19.42
2023-05-24T12:28:34.150Z,20.33
2023-05-24T12:31:02.432Z,18.17
2023-05-24T12:33:28.964Z,17.79
2023-05-24T12:35:55.591Z,17.41
2023-05-24T12:38:24.176Z,16.76
2023-05-24T12:41:08.185Z,16.43
2023-05-24T12:43:39.261Z,16.02
2023-05-24T12:46:07.140Z,16.53
2023-05-24T12:48:33.779Z,16.56
2023-05-24T12:51:00.399Z,18.11
2023-05-24T12:53:26.901Z,18.58
2023-05-24T12:55:53.543Z,18.24
2023-05-24T12:58:20.163Z,17.54
2023-05-24T13:00:46.832Z,18.00
2023-05-24T13:03:14.949Z,17.42
2023-05-24T13:05:41.561Z,17.83
2023-05-24T13:08:08.512Z,18.02
2023-05-24T13:10:35.076Z,17.59
2023-05-24T13:13:01.795Z,17.06
2023-05-24T13:15:28.393Z,17.60
2023-05-24T13:17:55.030Z,17.37
2023-05-24T13:20:23.215Z,16.97
2023-05-24T13:22:49.827Z,16.30
2023-05-24T13:25:16.482Z,17.52
2023-05-24T13:27:43.057Z,18.56
2023-05-24T13:30:10.584Z,18.07
2023-05-24T13:32:39.721Z,17.56
2023-05-24T13:35:08.761Z,16.40
2023-05-24T13:37:36.774Z,16.29
2023-05-24T13:40:04.074Z,16.16
2023-05-24T13:42:30.803Z,16.21
2023-05-24T13:44:57.485Z,15.85
2023-05-24T13:47:38.785Z,15.64
2023-05-24T13:50:07.679Z,15.85
2023-05-24T13:52:35.613Z,16.23
2023-05-24T13:55:03.516Z,16.26
2023-05-24T13:57:46.951Z,16.04
2023-05-24T14:00:17.944Z,16.30
2023-05-24T14:02:44.598Z,16.51
2023-05-24T14:05:25.739Z,16.71
2023-05-24T14:07:55.670Z,16.47
2023-05-24T14:10:22.489Z,16.24
2023-05-24T14:12:59.383Z,16.36
2023-05-24T14:15:30.922Z,15.71
2023-05-24T14:17:57.877Z,15.72
2023-05-24T14:20:24.495Z,15.66
2023-05-24T14:22:51.249Z,15.71
2023-05-24T14:25:19.168Z,15.84
2023-05-24T14:27:45.743Z,15.58
2023-05-24T14:30:12.930Z,16.40
2023-05-24T14:32:39.506Z,17.07
2023-05-24T14:35:06.698Z,18.34
2023-05-24T14:37:33.282Z,19.30
2023-05-24T14:40:00.112Z,19.05
2023-05-24T14:42:28.143Z,18.41
2023-05-24T14:44:54.731Z,19.15
2023-05-24T14:47:21.275Z,20.09
2023-05-24T14:49:47.840Z,18.94
2023-05-24T14:52:14.521Z,19.93
2023-05-24T14:54:41.098Z,20.32
2023-05-24T14:57:07.750Z,20.88
2023-05-24T14:59:35.675Z,20.51
2023-05-24T15:02:02.191Z,20.96
2023-05-24T15:04:28.728Z,21.04
2023-05-24T15:06:55.451Z,20.71
2023-05-24T15:09:22.012Z,20.75
2023-05-24T15:11:48.588Z,20.70
2023-05-24T15:14:15.355Z,21.05
2023-05-24T15:16:43.297Z,20.47
2023-05-24T15:19:09.899Z,19.73
2023-05-24T15:21:36.654Z,18.94
2023-05-24T15:24:03.467Z,18.55
2023-05-24T15:26:30.041Z,18.18
2023-05-24T15:28:56.640Z,17.45
2023-05-24T15:31:23.242Z,17.41
2023-05-24T15:33:51.215Z,17.39
2023-05-24T15:36:17.915Z,17.40
2023-05-24T15:38:44.484Z,17.64
2023-05-24T15:41:11.167Z,17.92
2023-05-24T15:43:37.901Z,18.46
2023-05-24T15:46:04.648Z,19.58
2023-05-24T15:48:31.315Z,20.29
2023-05-24T15:51:53.630Z,20.67
2023-05-24T15:53:45.808Z,19.62
2023-05-24T15:56:12.390Z,19.16
2023-05-24T15:58:39.032Z,18.99
2023-05-24T16:01:05.807Z,20.26
2023-05-24T16:03:32.715Z,20.73
2023-05-24T16:06:00.754Z,20.73
2023-05-24T16:08:28.173Z,20.13
2023-05-24T16:10:54.870Z,19.49
2023-05-24T16:13:21.531Z,19.84
2023-05-24T16:15:48.210Z,20.08
2023-05-24T16:18:14.820Z,21.05
2023-05-24T16:20:41.655Z,21.24
2023-05-24T16:23:09.946Z,21.14
2023-05-24T16:25:36.692Z,20.60
2023-05-24T16:28:03.335Z,21.60
2023-05-24T16:30:29.932Z,21.94
2023-05-24T16:32:56.463Z,21.99
2023-05-24T16:35:23.068Z,21.04
2023-05-24T16:37:50.990Z,20.17
2023-05-24T16:40:18.892Z,19.13
2023-05-24T16:42:45.381Z,18.46
2023-05-24T16:45:11.950Z,17.91
2023-05-24T16:47:38.539Z,17.61
2023-05-24T16:50:06.135Z,17.38
2023-05-24T16:52:32.694Z,16.92
2023-05-24T16:54:59.313Z,16.54
2023-05-24T16:57:27.185Z,16.21
2023-05-24T16:59:53.726Z,16.14
2023-05-24T17:02:20.440Z,16.11
2023-05-24T17:04:46.955Z,15.85
2023-05-24T17:07:13.539Z,15.97
2023-05-24T17:09:40.126Z,15.76
2023-05-24T17:12:06.871Z,15.55
2023-05-24T17:14:34.726Z,15.48
2023-05-24T17:17:01.422Z,15.28
2023-05-24T17:19:27.968Z,15.32
2023-05-24T17:21:54.493Z,15.12
2023-05-24T17:24:21.216Z,15.18
2023-05-24T17:26:47.850Z,15.21
2023-05-24T17:29:14.476Z,15.06
2023-05-24T17:31:42.415Z,15.16
2023-05-24T17:34:09.101Z,15.09
2023-05-24T17:36:35.615Z,14.93
2023-05-24T17:39:02.189Z,14.74
2023-05-24T17:41:28.747Z,14.65
2023-05-24T17:43:55.323Z,14.37
2023-05-24T17:46:21.897Z,14.24
2023-05-24T17:48:49.846Z,14.14
2023-05-24T17:51:16.501Z,13.90
2023-05-24T17:53:43.312Z,13.83
2023-05-24T17:56:09.895Z,13.58
2023-05-24T17:58:37.408Z,13.42
2023-05-24T18:01:05.274Z,13.34
2023-05-24T18:03:32.004Z,13.16
2023-05-24T18:06:00.149Z,13.08
2023-05-24T18:08:26.712Z,13.02
2023-05-24T18:10:53.312Z,13.01
2023-05-24T18:13:19.880Z,12.78
2023-05-24T18:15:46.615Z,12.83
2023-05-24T18:18:13.570Z,12.62
2023-05-24T18:20:40.553Z,12.58
2023-05-24T18:23:08.814Z,12.40
2023-05-24T18:25:35.629Z,12.31
2023-05-24T18:28:02.287Z,12.18
2023-05-24T18:30:28.828Z,12.12
2023-05-24T18:33:05.594Z,12.16
2023-05-24T18:35:34.948Z,12.06
2023-05-24T18:38:01.631Z,11.90
2023-05-24T18:40:29.661Z,11.69
2023-05-24T18:42:56.217Z,11.59
2023-05-24T18:45:22.895Z,11.48
2023-05-24T18:47:49.685Z,11.35
2023-05-24T18:50:16.319Z,11.23
2023-05-24T18:52:43.045Z,11.15
2023-05-24T18:55:09.900Z,10.98
2023-05-24T18:57:38.179Z,10.86
2023-05-24T19:00:05.850Z,10.79
2023-05-24T19:02:32.593Z,10.73
2023-05-24T19:04:59.244Z,10.74
2023-05-24T19:07:26.126Z,10.66
2023-05-24T19:09:52.776Z,10.56
2023-05-24T19:12:19.356Z,10.47
2023-05-24T19:14:47.522Z,10.42
2023-05-24T19:17:14.250Z,10.28
2023-05-24T19:19:40.784Z,10.14
2023-05-24T19:22:07.513Z,10.08
2023-05-24T19:24:34.088Z,9.97
2023-05-24T19:27:00.613Z,9.81
2023-05-24T19:29:27.346Z,9.70
2023-05-24T19:31:55.355Z,9.55
2023-05-24T19:34:22.046Z,9.51
2023-05-24T19:36:48.568Z,9.44
2023-05-24T19:39:15.484Z,9.59
2023-05-24T19:41:41.985Z,9.58
2023-05-24T19:44:08.712Z,9.50
2023-05-24T19:46:35.362Z,9.44
2023-05-24T19:49:03.349Z,9.39
2023-05-24T19:51:29.927Z,9.36
2023-05-24T19:53:56.474Z,9.23
2023-05-24T19:56:22.990Z,9.11
2023-05-24T19:58:49.540Z,9.04
2023-05-24T20:01:16.124Z,8.97
2023-05-24T20:03:42.834Z,8.89
2023-05-24T20:06:10.778Z,8.81
2023-05-24T20:08:37.284Z,8.68
2023-05-24T20:11:03.815Z,8.58
2023-05-24T20:13:30.343Z,8.47
2023-05-24T20:15:56.933Z,8.48
2023-05-24T20:18:23.531Z,8.35
2023-05-24T20:20:50.272Z,8.32
2023-05-24T20:23:18.261Z,8.27
2023-05-24T20:25:44.941Z,8.21
2023-05-24T20:28:25.589Z,8.16
2023-05-24T20:30:55.807Z,8.23
2023-05-24T20:33:22.383Z,8.21
2023-05-24T20:35:49.018Z,8.22
2023-05-24T20:38:15.742Z,8.15
2023-05-24T20:40:43.670Z,8.14
2023-05-24T20:43:10.354Z,8.07
2023-05-24T20:45:36.882Z,7.98
2023-05-24T20:48:03.761Z,7.88
2023-05-24T20:50:30.340Z,7.81
2023-05-24T20:52:56.898Z,7.68
2023-05-24T20:55:25.829Z,7.56
2023-05-24T20:57:54.628Z,7.50
2023-05-24T21:00:21.236Z,7.43
2023-05-24T21:02:48.034Z,7.29
2023-05-24T21:05:14.891Z,7.26
2023-05-24T21:07:41.453Z,7.21
2023-05-24T21:10:08.911Z,7.10
2023-05-24T21:12:35.632Z,7.04
2023-05-24T21:15:04.159Z,6.99
2023-05-24T21:17:30.692Z,6.96
2023-05-24T21:19:57.502Z,6.90
2023-05-24T21:22:24.140Z,6.82
2023-05-24T21:24:50.646Z,6.70
2023-05-24T21:27:18.462Z,6.61
2023-05-24T21:29:45.343Z,6.56
2023-05-24T21:32:13.390Z,6.52
2023-05-24T21:34:40.102Z,6.48
2023-05-24T21:37:06.632Z,6.42
2023-05-24T21:39:33.407Z,6.33
2023-05-24T21:41:59.962Z,6.29
2023-05-24T21:44:26.547Z,6.25
2023-05-24T21:46:53.161Z,6.24
2023-05-24T21:49:21.100Z,6.16
2023-05-24T21:51:49.208Z,6.10
2023-05-24T21:54:15.765Z,6.07
2023-05-24T21:56:42.338Z,6.00
2023-05-24T21:59:08.842Z,5.94
2023-05-24T22:01:35.441Z,5.90
2023-05-24T22:04:02.073Z,5.83
2023-05-24T22:06:30.141Z,5.79
2023-05-24T22:08:56.924Z,5.74
2023-05-24T22:11:23.477Z,5.75
2023-05-24T22:13:50.047Z,5.68
2023-05-24T22:16:16.701Z,5.63
2023-05-24T22:18:43.238Z,5.61
2023-05-24T22:21:09.778Z,5.61
2023-05-24T22:23:37.703Z,5.59
2023-05-24T22:26:04.331Z,5.52
2023-05-24T22:28:47.534Z,5.49
2023-05-24T22:31:14.118Z,5.44
2023-05-24T22:33:40.739Z,5.39
2023-05-24T22:36:07.530Z,5.35
2023-05-24T22:38:34.077Z,5.32
2023-05-24T22:41:02.160Z,5.29
2023-05-24T22:43:28.778Z,5.23
2023-05-24T22:45:56.190Z,5.15
2023-05-24T22:48:22.948Z,5.15
2023-05-24T22:50:49.606Z,5.08
2023-05-24T22:53:16.227Z,5.04
2023-05-24T22:55:43.008Z,5.00
2023-05-24T22:58:11.149Z,4.95
2023-05-24T23:00:37.650Z,4.96
2023-05-24T23:03:04.418Z,4.95
2023-05-24T23:05:30.976Z,4.94
2023-05-24T23:07:57.580Z,4.94
2023-05-24T23:10:24.133Z,4.93
2023-05-24T23:12:50.849Z,4.91
2023-05-24T23:15:18.821Z,4.91
2023-05-24T23:17:45.544Z,4.88
2023-05-24T23:20:12.318Z,4.82
2023-05-24T23:22:38.870Z,4.79
2023-05-24T23:25:06.676Z,4.74
2023-05-24T23:27:33.267Z,4.67
2023-05-24T23:29:59.939Z,4.59
2023-05-24T23:32:27.872Z,4.56
2023-05-24T23:34:54.473Z,4.49
2023-05-24T23:37:21.050Z,4.47
2023-05-24T23:39:47.597Z,4.45
2023-05-24T23:42:14.281Z,4.39
2023-05-24T23:44:40.850Z,4.39
2023-05-24T23:47:07.746Z,4.37
2023-05-24T23:49:35.661Z,4.32
2023-05-24T23:52:02.209Z,4.28
2023-05-24T23:54:28.773Z,4.27
2023-05-24T23:56:55.343Z,4.24
2023-05-24T23:59:22.012Z,4.20
